createdAt,value
2018-01-26T00:00:43.622Z,34.67
2018-01-26T00:03:11.639Z,22.40
2018-01-26T00:05:40.337Z,21.10
2018-01-26T00:08:06.890Z,24.00
2018-01-26T00:10:40.468Z,21.53
2018-01-26T00:13:07.026Z,24.83
2018-01-26T00:15:33.515Z,15.70
2018-01-26T00:18:00.041Z,21.80
2018-01-26T00:20:26.905Z,19.87
2018-01-26T00:22:53.478Z,20.70
2018-01-26T00:25:20.450Z,17.87
2018-01-26T00:27:47.028Z,31.57
2018-01-26T00:30:13.565Z,22.33
2018-01-26T00:32:40.469Z,19.30
2018-01-26T00:35:07.722Z,30.67
2018-01-26T00:37:34.285Z,23.70
2018-01-26T00:40:02.198Z,17.87
2018-01-26T00:42:28.794Z,28.23
2018-01-26T00:44:56.730Z,24.77
2018-01-26T00:47:24.338Z,24.23
2018-01-26T00:49:50.859Z,17.53
2018-01-26T00:52:17.394Z,18.60
2018-01-26T00:54:44.175Z,22.37
2018-01-26T00:57:11.710Z,32.40
2018-01-26T00:59:38.331Z,32.80
2018-01-26T01:02:05.044Z,24.57
2018-01-26T01:04:31.944Z,25.50
2018-01-26T01:06:58.417Z,16.03
2018-01-26T01:09:25.189Z,24.50
2018-01-26T01:11:52.571Z,23.73
2018-01-26T01:14:19.174Z,29.27
2018-01-26T01:16:46.598Z,25.20
2018-01-26T01:19:13.142Z,26.43
2018-01-26T01:21:39.781Z,25.77
2018-01-26T01:24:07.300Z,20.13
2018-01-26T01:26:33.809Z,33.67
2018-01-26T01:29:01.395Z,25.27
2018-01-26T01:31:29.386Z,32.10
2018-01-26T01:33:57.073Z,24.73
2018-01-26T01:36:25.248Z,32.03
2018-01-26T01:38:53.672Z,27.33
2018-01-26T01:41:20.371Z,26.20
2018-01-26T01:43:47.720Z,29.40
2018-01-26T01:46:15.183Z,31.00
2018-01-26T01:48:58.361Z,29.57
2018-01-26T01:51:24.893Z,28.00
2018-01-26T01:53:52.071Z,29.57
2018-01-26T01:56:19.538Z,16.13
2018-01-26T01:58:46.178Z,26.03
2018-01-26T02:01:12.687Z,25.60
2018-01-26T02:03:40.218Z,33.40
2018-01-26T02:06:08.580Z,28.53
2018-01-26T02:08:37.637Z,26.70
2018-01-26T02:11:04.092Z,26.30
2018-01-26T02:13:31.569Z,28.43
2018-01-26T02:15:59.663Z,26.47
2018-01-26T02:18:26.113Z,26.63
2018-01-26T02:20:53.349Z,37.30
2018-01-26T02:23:19.836Z,31.37
2018-01-26T02:25:46.749Z,27.10
2018-01-26T02:28:13.280Z,20.63
2018-01-26T02:30:39.767Z,16.33
2018-01-26T02:33:06.250Z,25.20
2018-01-26T02:35:33.528Z,24.97
2018-01-26T02:38:00.001Z,44.20
2018-01-26T02:40:26.557Z,34.17
2018-01-26T02:42:53.093Z,31.47
2018-01-26T02:45:19.531Z,41.47
2018-01-26T02:47:45.994Z,26.43
2018-01-26T02:50:12.859Z,32.73
2018-01-26T02:52:40.480Z,31.50
2018-01-26T02:55:07.773Z,43.93
2018-01-26T02:57:34.270Z,33.27
2018-01-26T03:00:00.814Z,28.63
2018-01-26T03:02:27.385Z,33.00
2018-01-26T03:04:55.508Z,31.03
2018-01-26T03:07:22.434Z,43.00
2018-01-26T03:09:50.651Z,33.40
2018-01-26T03:12:18.201Z,35.23
2018-01-26T03:14:44.722Z,42.13
2018-01-26T03:17:11.996Z,37.93
2018-01-26T03:19:39.518Z,33.83
2018-01-26T03:22:06.223Z,31.10
2018-01-26T03:24:32.732Z,34.90
2018-01-26T03:26:59.393Z,38.37
2018-01-26T03:29:25.885Z,43.77
2018-01-26T03:34:26.117Z,37.53
2018-01-26T03:36:52.801Z,38.13
2018-01-26T03:39:19.412Z,34.03
2018-01-26T03:41:46.411Z,37.40
2018-01-26T03:44:12.915Z,44.00
2018-01-26T03:46:39.707Z,38.20
2018-01-26T03:49:07.098Z,40.87
2018-01-26T03:51:33.609Z,45.03
2018-01-26T03:54:00.088Z,43.23
2018-01-26T03:56:26.717Z,39.33
2018-01-26T03:58:53.564Z,37.90
2018-01-26T04:01:20.082Z,49.57
2018-01-26T04:03:47.861Z,36.03
2018-01-26T04:06:14.401Z,35.50
2018-01-26T04:08:40.962Z,46.97
2018-01-26T04:11:07.535Z,59.50
2018-01-26T04:13:34.135Z,43.73
2018-01-26T04:16:00.778Z,40.00
2018-01-26T04:18:28.038Z,41.63
2018-01-26T04:20:54.972Z,46.70
2018-01-26T04:23:21.460Z,35.60
2018-01-26T04:25:48.181Z,59.80
2018-01-26T04:28:15.505Z,42.13
2018-01-26T04:30:43.717Z,46.20
2018-01-26T04:33:10.308Z,47.83
2018-01-26T04:35:37.259Z,41.00
2018-01-26T04:38:04.822Z,58.73
2018-01-26T04:40:31.370Z,43.93
2018-01-26T04:42:58.786Z,47.70
2018-01-26T04:48:23.641Z,51.90
2018-01-26T04:50:50.351Z,45.30
2018-01-26T04:53:17.911Z,55.03
2018-01-26T04:55:44.570Z,46.93
2018-01-26T04:58:11.153Z,43.27
2018-01-26T05:00:38.820Z,57.33
2018-01-26T05:03:05.358Z,44.03
2018-01-26T05:05:32.378Z,51.23
2018-01-26T05:07:59.732Z,50.77
2018-01-26T05:10:26.317Z,49.57
2018-01-26T05:12:53.256Z,51.07
2018-01-26T05:15:20.536Z,63.53
2018-01-26T05:17:47.044Z,58.83
2018-01-26T05:20:13.632Z,56.70
2018-01-26T05:22:40.267Z,65.57
2018-01-26T05:25:06.821Z,59.37
2018-01-26T05:27:34.517Z,67.20
2018-01-26T05:30:01.873Z,68.57
2018-01-26T05:32:29.128Z,89.17
2018-01-26T05:34:57.982Z,68.93
2018-01-26T05:37:24.628Z,69.37
2018-01-26T05:39:51.293Z,86.93
2018-01-26T05:42:18.021Z,79.63
2018-01-26T05:44:45.156Z,66.10
2018-01-26T05:47:12.030Z,74.87
2018-01-26T05:49:39.712Z,56.77
2018-01-26T05:52:06.292Z,75.50
2018-01-26T05:54:33.237Z,63.53
2018-01-26T05:57:01.111Z,68.50
2018-01-26T05:59:27.637Z,58.20
2018-01-26T06:01:54.275Z,68.40
2018-01-26T06:04:21.793Z,77.70
2018-01-26T06:06:48.534Z,78.17
2018-01-26T06:09:15.892Z,69.97
2018-01-26T06:11:48.823Z,55.83
2018-01-26T06:14:17.330Z,69.80
2018-01-26T06:16:44.109Z,76.87
2018-01-26T06:19:10.828Z,65.17
2018-01-26T06:21:37.913Z,74.13
2018-01-26T06:24:04.510Z,73.57
2018-01-26T06:26:31.370Z,87.17
2018-01-26T06:28:57.924Z,77.90
2018-01-26T06:31:25.915Z,68.20
2018-01-26T06:33:53.012Z,82.07
2018-01-26T06:36:19.645Z,70.43
2018-01-26T06:38:46.637Z,103.47
2018-01-26T06:41:16.010Z,83.90
2018-01-26T06:43:43.055Z,103.83
2018-01-26T06:46:10.036Z,74.47
2018-01-26T06:48:37.321Z,99.60
2018-01-26T06:51:03.807Z,72.93
2018-01-26T06:53:30.305Z,81.73
2018-01-26T06:55:56.813Z,94.73
2018-01-26T06:58:23.396Z,78.57
2018-01-26T07:00:50.078Z,92.80
2018-01-26T07:03:17.821Z,102.53
2018-01-26T07:05:44.546Z,79.00
2018-01-26T07:08:11.056Z,95.87
2018-01-26T07:10:37.703Z,87.13
2018-01-26T07:13:04.324Z,85.20
2018-01-26T07:15:31.641Z,82.97
2018-01-26T07:17:58.272Z,84.03
2018-01-26T07:20:24.917Z,73.90
2018-01-26T07:22:51.895Z,63.03
2018-01-26T07:25:18.583Z,69.27
2018-01-26T07:27:45.500Z,93.87
2018-01-26T07:30:12.763Z,73.40
2018-01-26T07:32:39.741Z,69.30
2018-01-26T07:35:06.273Z,82.50
2018-01-26T07:37:32.921Z,72.73
2018-01-26T07:39:59.660Z,78.53
2018-01-26T07:42:27.575Z,78.73
2018-01-26T07:44:54.858Z,91.47
2018-01-26T07:47:21.445Z,75.57
2018-01-26T07:49:48.742Z,67.40
2018-01-26T07:52:15.928Z,71.27
2018-01-26T07:54:42.494Z,71.17
2018-01-26T07:57:11.115Z,69.80
2018-01-26T07:59:38.939Z,56.77
2018-01-26T08:02:05.473Z,64.40
2018-01-26T08:04:32.357Z,66.33
2018-01-26T08:07:03.757Z,59.07
2018-01-26T08:09:41.440Z,60.30
2018-01-26T08:12:10.459Z,65.03
2018-01-26T08:14:38.799Z,71.93
2018-01-26T08:17:05.321Z,79.67
2018-01-26T08:19:31.830Z,80.07
2018-01-26T08:21:59.116Z,57.43
2018-01-26T08:24:27.786Z,75.43
2018-01-26T08:26:55.576Z,70.63
2018-01-26T08:29:22.503Z,69.40
2018-01-26T08:31:49.126Z,60.13
2018-01-26T08:34:16.101Z,59.07
2018-01-26T08:36:42.572Z,74.73
2018-01-26T08:39:09.965Z,63.83
2018-01-26T08:41:36.991Z,69.27
2018-01-26T08:44:03.600Z,52.03
2018-01-26T08:46:30.550Z,55.43
2018-01-26T08:48:58.186Z,58.23
2018-01-26T08:51:24.673Z,48.20
2018-01-26T08:53:51.846Z,47.23
2018-01-26T08:56:19.266Z,70.30
2018-01-26T08:58:45.853Z,121.17
2018-01-26T09:01:14.787Z,54.03
2018-01-26T09:03:41.720Z,50.97
2018-01-26T09:06:08.359Z,70.27
2018-01-26T09:08:36.724Z,73.43
2018-01-26T09:11:03.657Z,51.00
2018-01-26T09:13:30.588Z,41.63
2018-01-26T09:15:57.457Z,35.80
2018-01-26T09:18:25.783Z,40.00
2018-01-26T09:20:52.251Z,35.40
2018-01-26T09:23:19.971Z,36.40
2018-01-26T09:25:48.141Z,31.70
2018-01-26T09:28:14.697Z,34.23
2018-01-26T09:30:42.469Z,30.30
2018-01-26T09:33:09.341Z,33.43
2018-01-26T09:35:36.614Z,32.73
2018-01-26T09:38:04.334Z,25.00
2018-01-26T09:40:31.582Z,30.83
2018-01-26T09:42:58.073Z,31.67
2018-01-26T09:45:27.039Z,33.53
2018-01-26T09:47:53.618Z,48.90
2018-01-26T09:50:20.473Z,27.33
2018-01-26T09:52:48.488Z,31.10
2018-01-26T09:55:16.025Z,36.50
2018-01-26T09:57:42.918Z,38.03
2018-01-26T10:00:10.595Z,39.70
2018-01-26T10:02:38.136Z,49.87
2018-01-26T10:05:04.633Z,31.30
2018-01-26T10:07:31.901Z,33.43
2018-01-26T10:09:58.844Z,41.13
2018-01-26T10:12:25.381Z,41.60
2018-01-26T10:14:51.942Z,39.20
2018-01-26T10:17:19.637Z,42.83
2018-01-26T10:19:46.141Z,38.13
2018-01-26T10:22:13.831Z,33.70
2018-01-26T10:24:41.298Z,34.03
2018-01-26T10:27:07.833Z,37.03
2018-01-26T10:29:34.677Z,38.63
2018-01-26T10:32:01.609Z,43.93
2018-01-26T10:34:28.509Z,36.13
2018-01-26T10:36:55.880Z,53.50
2018-01-26T10:39:22.949Z,46.80
2018-01-26T10:41:51.109Z,46.93
2018-01-26T10:44:17.583Z,47.80
2018-01-26T10:46:45.649Z,45.07
2018-01-26T10:49:13.745Z,35.00
2018-01-26T10:51:40.385Z,54.33
2018-01-26T10:54:06.841Z,39.73
2018-01-26T10:56:33.506Z,41.93
2018-01-26T10:59:01.065Z,45.73
2018-01-26T11:01:27.657Z,38.03
2018-01-26T11:03:54.947Z,38.43
2018-01-26T11:06:21.924Z,38.50
2018-01-26T11:08:48.864Z,42.17
2018-01-26T11:11:15.858Z,41.87
2018-01-26T11:13:43.362Z,38.37
2018-01-26T11:16:10.619Z,43.40
2018-01-26T11:18:38.033Z,34.80
2018-01-26T11:21:04.635Z,36.23
2018-01-26T11:23:31.127Z,37.03
2018-01-26T11:25:57.681Z,41.23
2018-01-26T11:28:25.245Z,35.57
2018-01-26T11:30:51.829Z,37.80
2018-01-26T11:33:19.288Z,33.13
2018-01-26T11:35:45.979Z,41.67
2018-01-26T11:38:12.844Z,41.20
2018-01-26T11:40:39.734Z,36.17
2018-01-26T11:43:06.710Z,41.00
2018-01-26T11:45:33.794Z,55.33
2018-01-26T11:48:02.029Z,58.90
2018-01-26T11:50:30.512Z,59.47
2018-01-26T11:52:57.792Z,60.90
2018-01-26T11:55:25.928Z,59.87
2018-01-26T11:57:53.613Z,56.60
2018-01-26T12:00:20.618Z,66.73
2018-01-26T12:02:48.108Z,58.10
2018-01-26T12:05:15.379Z,71.80
2018-01-26T12:07:42.557Z,68.37
2018-01-26T12:10:09.511Z,79.10
2018-01-26T12:12:36.197Z,62.60
2018-01-26T12:15:03.082Z,61.77
2018-01-26T12:17:30.808Z,64.77
2018-01-26T12:19:58.294Z,51.60
2018-01-26T12:22:26.877Z,58.90
2018-01-26T12:24:54.572Z,65.53
2018-01-26T12:27:21.404Z,70.20
2018-01-26T12:29:47.986Z,62.50
2018-01-26T12:32:15.857Z,67.60
2018-01-26T12:34:43.637Z,66.70
2018-01-26T12:37:10.158Z,76.33
2018-01-26T12:39:36.743Z,69.67
2018-01-26T12:42:04.202Z,66.73
2018-01-26T12:44:31.688Z,58.40
2018-01-26T12:46:59.824Z,63.10
2018-01-26T12:49:26.706Z,63.43
2018-01-26T12:51:54.929Z,72.57
2018-01-26T12:54:22.569Z,65.43
2018-01-26T12:56:50.787Z,63.63
2018-01-26T12:59:18.114Z,72.13
2018-01-26T13:01:45.211Z,68.70
2018-01-26T13:04:13.024Z,70.83
2018-01-26T13:06:40.105Z,80.10
2018-01-26T13:09:07.833Z,84.50
2018-01-26T13:11:34.578Z,70.20
2018-01-26T13:14:04.169Z,63.97
2018-01-26T13:16:32.576Z,78.37
2018-01-26T13:19:01.092Z,81.17
2018-01-26T13:21:28.390Z,98.93
2018-01-26T13:23:56.502Z,79.77
2018-01-26T13:26:23.094Z,81.03
2018-01-26T13:28:50.015Z,72.53
2018-01-26T13:31:17.370Z,75.63
2018-01-26T13:33:44.503Z,79.53
2018-01-26T13:36:10.991Z,70.73
2018-01-26T13:38:37.740Z,78.70
2018-01-26T13:41:05.019Z,68.30
2018-01-26T13:43:31.700Z,66.30
2018-01-26T13:45:59.415Z,82.40
2018-01-26T13:48:27.331Z,77.13
2018-01-26T13:50:56.106Z,65.17
2018-01-26T13:53:23.993Z,68.50
2018-01-26T13:55:51.787Z,80.77
2018-01-26T13:58:18.750Z,85.67
2018-01-26T14:00:45.797Z,84.83
2018-01-26T14:03:16.141Z,84.83
2018-01-26T14:05:44.601Z,77.10
2018-01-26T14:08:11.241Z,100.23
2018-01-26T14:10:38.718Z,102.33
2018-01-26T14:13:05.306Z,105.70
2018-01-26T14:15:32.276Z,100.43
2018-01-26T14:18:00.859Z,113.80
2018-01-26T14:20:27.478Z,84.40
2018-01-26T14:25:29.664Z,104.57
2018-01-26T14:27:57.940Z,99.43
2018-01-26T14:30:25.030Z,119.63
2018-01-26T14:32:58.497Z,101.63
2018-01-26T14:35:25.052Z,117.80
2018-01-26T14:37:52.102Z,115.30
2018-01-26T14:40:20.229Z,98.93
2018-01-26T14:42:47.949Z,126.43
2018-01-26T14:45:16.854Z,98.40
2018-01-26T14:47:43.658Z,129.77
2018-01-26T14:50:10.723Z,129.63
2018-01-26T14:52:37.626Z,150.30
2018-01-26T14:55:04.972Z,123.10
2018-01-26T14:57:32.422Z,140.23
2018-01-26T15:00:01.694Z,157.83
2018-01-26T15:02:29.000Z,147.97
2018-01-26T15:05:02.476Z,136.63
2018-01-26T15:07:29.562Z,160.67
2018-01-26T15:09:56.727Z,166.70
2018-01-26T15:12:24.134Z,161.57
2018-01-26T15:14:51.656Z,168.50
2018-01-26T15:17:19.961Z,159.43
2018-01-26T15:19:46.784Z,181.00
2018-01-26T15:22:13.961Z,154.97
2018-01-26T15:24:42.074Z,183.00
2018-01-26T15:27:10.572Z,186.50
2018-01-26T15:29:38.086Z,172.43
2018-01-26T15:32:05.140Z,172.70
2018-01-26T15:34:32.259Z,181.03
2018-01-26T15:36:59.065Z,170.83
2018-01-26T15:39:26.160Z,181.53
2018-01-26T15:41:52.894Z,167.17
2018-01-26T15:44:21.686Z,164.37
2018-01-26T15:46:48.534Z,206.07
2018-01-26T15:49:16.230Z,217.00
2018-01-26T15:51:44.381Z,199.17
2018-01-26T15:54:12.233Z,254.87
2018-01-26T15:56:39.004Z,272.33
2018-01-26T15:59:07.061Z,255.77
2018-01-26T16:01:33.689Z,251.33
2018-01-26T16:04:01.242Z,269.70
2018-01-26T16:06:28.348Z,266.40
2018-01-26T16:08:55.010Z,278.33
2018-01-26T16:11:21.925Z,280.03
2018-01-26T16:13:49.661Z,267.40
2018-01-26T16:16:22.590Z,286.43
2018-01-26T16:18:49.909Z,284.00
2018-01-26T16:21:18.242Z,236.37
2018-01-26T16:23:45.554Z,271.83
2018-01-26T16:26:12.582Z,350.63
2018-01-26T16:28:40.829Z,377.03
2018-01-26T16:31:07.896Z,371.03
2018-01-26T16:33:36.469Z,436.47
2018-01-26T16:36:03.898Z,402.13
2018-01-26T16:38:31.502Z,445.13
2018-01-26T16:40:58.244Z,438.80
2018-01-26T16:43:24.772Z,236.63
2018-01-26T16:45:53.181Z,322.77
2018-01-26T16:48:20.461Z,272.07
2018-01-26T16:50:47.707Z,255.87
2018-01-26T16:53:14.810Z,247.37
2018-01-26T16:55:42.347Z,250.40
2018-01-26T16:58:09.059Z,226.40
2018-01-26T17:00:36.745Z,220.37
2018-01-26T17:03:04.820Z,191.20
2018-01-26T17:05:37.109Z,218.03
2018-01-26T17:08:09.174Z,200.23
2018-01-26T17:10:38.212Z,224.50
2018-01-26T17:13:04.872Z,218.77
2018-01-26T17:15:31.517Z,213.07
2018-01-26T17:17:58.552Z,200.90
2018-01-26T17:20:25.657Z,209.70
2018-01-26T17:22:53.441Z,227.93
2018-01-26T17:25:20.938Z,219.70
2018-01-26T17:27:48.279Z,224.33
2018-01-26T17:30:16.881Z,246.40
2018-01-26T17:32:43.402Z,223.33
2018-01-26T17:35:11.007Z,261.97
2018-01-26T17:37:39.737Z,228.63
2018-01-26T17:40:06.819Z,232.00
2018-01-26T17:42:33.389Z,255.23
2018-01-26T17:45:00.077Z,292.87
2018-01-26T17:47:26.579Z,238.10
2018-01-26T17:49:53.841Z,269.53
2018-01-26T17:52:21.212Z,303.57
2018-01-26T17:54:48.146Z,282.87
2018-01-26T17:57:16.245Z,333.50
2018-01-26T17:59:43.505Z,387.17
2018-01-26T18:02:11.366Z,379.63
2018-01-26T18:04:38.003Z,412.83
2018-01-26T18:07:04.583Z,489.97
2018-01-26T18:09:31.892Z,594.30
2018-01-26T18:11:58.532Z,671.00
2018-01-26T18:14:25.717Z,743.53
2018-01-26T18:16:52.801Z,637.53
2018-01-26T18:19:19.674Z,547.37
2018-01-26T18:21:48.153Z,407.20
2018-01-26T18:24:15.030Z,385.87
2018-01-26T18:26:41.652Z,431.83
2018-01-26T18:29:09.152Z,357.53
2018-01-26T18:31:35.884Z,440.67
2018-01-26T18:34:02.861Z,364.20
2018-01-26T18:36:29.981Z,286.13
2018-01-26T18:38:57.007Z,343.93
2018-01-26T18:41:25.886Z,290.33
2018-01-26T18:43:54.626Z,265.13
2018-01-26T18:46:21.589Z,236.47
2018-01-26T18:48:52.730Z,252.40
2018-01-26T18:51:19.768Z,304.43
2018-01-26T18:53:46.260Z,272.37
2018-01-26T18:56:12.878Z,273.10
2018-01-26T18:58:39.251Z,299.07
2018-01-26T19:01:05.664Z,313.20
2018-01-26T19:03:32.480Z,365.03
2018-01-26T19:06:00.697Z,417.10
2018-01-26T19:08:32.177Z,326.73
2018-01-26T19:11:00.722Z,377.13
2018-01-26T19:13:29.217Z,335.47
2018-01-26T19:16:00.232Z,359.80
2018-01-26T19:18:28.427Z,382.67
2018-01-26T19:20:56.682Z,368.63
2018-01-26T19:23:23.584Z,366.10
2018-01-26T19:25:52.755Z,362.57
2018-01-26T19:28:20.182Z,364.37
2018-01-26T19:30:47.133Z,373.13
2018-01-26T19:33:14.012Z,361.47
2018-01-26T19:35:40.522Z,324.23
2018-01-26T19:38:07.044Z,340.93
2018-01-26T19:40:34.097Z,381.17
2018-01-26T19:43:01.101Z,346.63
2018-01-26T19:45:30.377Z,312.80
2018-01-26T19:47:56.970Z,340.20
2018-01-26T19:50:23.890Z,266.57
2018-01-26T19:52:50.429Z,312.63
2018-01-26T19:55:18.216Z,349.30
2018-01-26T19:57:44.543Z,320.27
2018-01-26T20:00:13.197Z,332.17
2018-01-26T20:02:41.913Z,318.60
2018-01-26T20:05:30.610Z,361.53
2018-01-26T20:08:00.592Z,298.80
2018-01-26T20:10:27.848Z,232.60
2018-01-26T20:15:59.112Z,262.80
2018-01-26T20:18:27.461Z,249.57
2018-01-26T20:20:56.400Z,288.80
2018-01-26T20:23:27.764Z,259.00
2018-01-26T20:25:55.494Z,224.53
2018-01-26T20:28:23.890Z,226.30
2018-01-26T20:30:51.610Z,201.47
2018-01-26T20:33:20.480Z,199.70
2018-01-26T20:35:47.192Z,184.53
2018-01-26T20:38:14.921Z,156.77
2018-01-26T20:40:42.670Z,169.63
2018-01-26T20:43:10.797Z,137.07
2018-01-26T20:45:40.122Z,158.00
2018-01-26T20:48:08.186Z,162.27
2018-01-26T20:50:35.100Z,125.50
2018-01-26T20:53:03.438Z,135.20
2018-01-26T20:55:32.169Z,133.33
2018-01-26T20:58:04.215Z,146.80
2018-01-26T21:00:30.827Z,133.53
2018-01-26T21:02:59.344Z,154.23
2018-01-26T21:05:26.258Z,141.83
2018-01-26T21:07:53.884Z,142.20
2018-01-26T21:10:23.934Z,148.80
2018-01-26T21:12:52.443Z,129.83
2018-01-26T21:15:22.389Z,120.53
2018-01-26T21:17:50.506Z,123.07
2018-01-26T21:20:20.624Z,117.93
2018-01-26T21:22:50.638Z,131.53
2018-01-26T21:25:18.304Z,123.70
2018-01-26T21:27:46.676Z,140.33
2018-01-26T21:30:13.618Z,150.00
2018-01-26T21:32:40.572Z,152.77
2018-01-26T21:35:07.822Z,149.67
2018-01-26T21:37:35.385Z,138.93
2018-01-26T21:40:02.827Z,131.23
2018-01-26T21:42:31.483Z,125.30
2018-01-26T21:44:58.397Z,128.67
2018-01-26T21:47:27.487Z,106.17
2018-01-26T21:49:55.374Z,121.37
2018-01-26T21:52:23.713Z,114.80
2018-01-26T21:54:51.686Z,138.90
2018-01-26T21:57:18.953Z,126.20
2018-01-26T21:59:46.381Z,131.57
2018-01-26T22:02:14.697Z,124.93
2018-01-26T22:04:49.079Z,111.23
2018-01-26T22:07:21.567Z,111.97
2018-01-26T22:09:48.640Z,110.43
2018-01-26T22:12:16.084Z,108.00
2018-01-26T22:14:43.176Z,101.60
2018-01-26T22:17:10.221Z,93.77
2018-01-26T22:19:37.096Z,109.53
2018-01-26T22:22:04.818Z,110.43
2018-01-26T22:24:34.164Z,112.37
2018-01-26T22:27:02.300Z,89.33
2018-01-26T22:29:28.809Z,97.00
2018-01-26T22:31:56.580Z,107.80
2018-01-26T22:34:23.039Z,120.47
2018-01-26T22:36:53.444Z,106.07
2018-01-26T22:39:20.880Z,102.97
2018-01-26T22:41:48.651Z,107.93
2018-01-26T22:44:16.322Z,109.77
2018-01-26T22:46:43.743Z,116.27
2018-01-26T22:49:11.640Z,133.27
2018-01-26T22:51:39.611Z,109.93
2018-01-26T22:54:07.486Z,110.90
2018-01-26T22:56:34.110Z,116.70
2018-01-26T22:59:01.331Z,119.43
2018-01-26T23:01:29.077Z,108.77
2018-01-26T23:03:58.391Z,108.97
2018-01-26T23:06:26.301Z,118.53
2018-01-26T23:08:57.507Z,95.07
2018-01-26T23:11:25.315Z,121.67
2018-01-26T23:13:53.540Z,94.60
2018-01-26T23:16:20.397Z,117.63
2018-01-26T23:18:51.502Z,110.60
2018-01-26T23:21:18.949Z,120.37
2018-01-26T23:23:46.620Z,99.13
2018-01-26T23:26:13.494Z,111.67
2018-01-26T23:28:40.507Z,94.80
2018-01-26T23:31:07.772Z,118.30
2018-01-26T23:33:34.730Z,110.10
2018-01-26T23:36:01.210Z,114.90
2018-01-26T23:38:28.496Z,105.20
2018-01-26T23:40:56.697Z,117.73
2018-01-26T23:43:24.418Z,100.17
2018-01-26T23:45:52.079Z,100.03
2018-01-26T23:48:20.699Z,96.10
2018-01-26T23:50:48.365Z,114.67
2018-01-26T23:53:16.552Z,102.90
2018-01-26T23:55:44.075Z,97.07
2018-01-26T23:58:10.576Z,97.87
